»·PEaware :: VRD2342 KSFO-KIDA

VRD2342 :: KSFO-KIDA

FLIGHT INFORMATION

Flight Status: Arrived
Operator:
Virgin America
More flights by this operator :: More flights under this callsign
Pilot: Ruben R. (12247)
Aircraft: AIRBUS A320
(A320)
More flights by this aircraft type
Origin: KSFO San Francisco Intl
United States
Destination: KIDA Idaho Falls Regl
United States
More flights between these airports :: More routes between these airports
Route: TRUKN2 ORRCA Q120 GALLI BAM J32 MLD V465 JAC
File this flight plan on PilotEdge
Remarks: TWITCH.TV / THEMACH3LOUNGE
Altitude:
(Current/Filed)
37,000ft
Speed:
(Current/Filed)
450kts
Departed: 28-Dec-17 11:03 AM
Arrived: 28-Dec-17 12:40 PM
Distance/Time
Traveled:
587nm/1:37
Distance/Time
To Go:
Arrived

Flight Plot

Page will automatically refresh every two minutes.

Flight plan parsing failed; only flown route is shown


Map Options




Map Legend


Flown Route
Filed Route
Departure Airport
Arrival Airport
Navaid (VOR, NDB)
Fix

Horizontal Profiles

Position Reports

Time Latitude Longitude Heading Altitude Ground
Speed
28-Dec-17 10:33 37.616759 -122.381705 22 21ft 0kts
28-Dec-17 10:34 37.616759 -122.381705 22 21ft 0kts
28-Dec-17 10:35 37.616759 -122.381705 22 21ft 0kts
28-Dec-17 10:36 37.616759 -122.381705 22 21ft 0kts
28-Dec-17 10:37 37.616759 -122.381705 22 21ft 0kts
28-Dec-17 10:38 37.616759 -122.381705 22 21ft 0kts
28-Dec-17 10:39 37.616759 -122.381705 22 21ft 0kts
28-Dec-17 10:40 37.616758 -122.381705 22 21ft 0kts
28-Dec-17 10:41 37.616758 -122.381705 22 21ft 0kts
28-Dec-17 10:42 37.616758 -122.381705 22 21ft 0kts
28-Dec-17 10:43 37.616758 -122.381705 22 21ft 0kts
28-Dec-17 10:44 37.616758 -122.381705 22 21ft 0kts
28-Dec-17 10:45 37.616758 -122.381705 22 21ft 0kts
28-Dec-17 10:46 37.616758 -122.381705 22 21ft 0kts
28-Dec-17 10:47 37.616758 -122.381705 22 21ft 0kts
28-Dec-17 10:48 37.616758 -122.381705 22 21ft 0kts
28-Dec-17 10:49 37.616758 -122.381705 22 21ft 0kts
28-Dec-17 10:50 37.616758 -122.381705 22 21ft 0kts
28-Dec-17 10:51 37.616758 -122.381705 22 21ft 0kts
28-Dec-17 10:52 37.616758 -122.381705 22 21ft 0kts
28-Dec-17 10:53 37.616511 -122.381832 22 21ft 2kts
28-Dec-17 10:54 37.616165 -122.382264 115 21ft 0kts
28-Dec-17 10:55 37.616204 -122.382347 118 21ft 0kts
28-Dec-17 10:56 37.616204 -122.382347 118 21ft 0kts
28-Dec-17 10:57 37.616204 -122.382347 118 21ft 0kts
28-Dec-17 10:58 37.616204 -122.382347 118 21ft 0kts
28-Dec-17 10:59 37.616204 -122.382347 118 21ft 0kts
28-Dec-17 11:00 37.616204 -122.382347 118 21ft 0kts
28-Dec-17 11:01 37.616204 -122.382347 118 21ft 0kts
28-Dec-17 11:02 37.615760 -122.381307 118 21ft 7kts
28-Dec-17 11:03 37.613871 -122.381457 207 21ft 9kts
28-Dec-17 11:04 37.611501 -122.383022 207 21ft 0kts
28-Dec-17 11:05 37.609593 -122.384281 154 21ft 5kts
28-Dec-17 11:06 37.609112 -122.383457 122 21ft 0kts
28-Dec-17 11:07 37.609112 -122.383457 122 21ft 0kts
28-Dec-17 11:08 37.608955 -122.382236 40 21ft 16kts
28-Dec-17 11:09 37.627573 -122.370237 25 627ft 156kts
28-Dec-17 11:10 37.662758 -122.318377 53 2779ft 255kts
28-Dec-17 11:11 37.703426 -122.243778 57 3705ft 343kts
28-Dec-17 11:12 37.759891 -122.176799 35 5879ft 313kts
28-Dec-17 11:13 37.812786 -122.128764 34 9232ft 291kts
28-Dec-17 11:14 37.879001 -122.068670 34 11503ft 330kts
28-Dec-17 11:15 37.969362 -121.986469 33 13573ft 372kts
28-Dec-17 11:16 38.052527 -121.910778 33 15808ft 383kts
28-Dec-17 11:17 38.123225 -121.846227 33 17478ft 392kts
28-Dec-17 11:18 38.206407 -121.770066 33 19026ft 401kts
28-Dec-17 11:19 38.295282 -121.688462 33 19081ft 401kts
28-Dec-17 11:20 38.383752 -121.606957 33 20388ft 410kts
28-Dec-17 11:21 38.460395 -121.524511 48 21836ft 422kts
28-Dec-17 11:22 38.529337 -121.411511 49 23249ft 431kts
28-Dec-17 11:23 38.596557 -121.301220 49 24455ft 440kts
28-Dec-17 11:24 38.664970 -121.188567 49 25562ft 447kts
28-Dec-17 11:25 38.735036 -121.072775 49 26550ft 456kts
28-Dec-17 11:26 38.805906 -120.955230 49 27484ft 463kts
28-Dec-17 11:27 38.879512 -120.832680 49 28393ft 469kts
28-Dec-17 11:28 38.954245 -120.707769 49 29165ft 476kts
28-Dec-17 11:29 39.030705 -120.579477 49 29993ft 478kts
28-Dec-17 11:30 39.107126 -120.450751 49 30957ft 476kts
28-Dec-17 11:31 39.178479 -120.330087 50 31833ft 475kts
28-Dec-17 11:32 39.253507 -120.202712 50 32675ft 473kts
28-Dec-17 11:33 39.332629 -120.067832 50 33467ft 471kts
28-Dec-17 11:34 39.410995 -119.933675 50 34175ft 470kts
28-Dec-17 11:35 39.488886 -119.799767 50 34800ft 469kts
28-Dec-17 11:36 39.567017 -119.664877 50 35390ft 468kts
28-Dec-17 11:37 39.644588 -119.530390 50 35903ft 467kts
28-Dec-17 11:38 39.721751 -119.396040 50 36366ft 467kts
28-Dec-17 11:39 39.797864 -119.262982 51 36736ft 467kts
28-Dec-17 11:40 39.874653 -119.128148 51 37057ft 468kts
28-Dec-17 11:41 39.947197 -118.988387 54 37127ft 466kts
28-Dec-17 11:42 40.014291 -118.844276 58 37128ft 468kts
28-Dec-17 11:43 40.077247 -118.696665 57 37128ft 467kts
28-Dec-17 11:44 40.139193 -118.550684 57 37129ft 467kts
28-Dec-17 11:45 40.201678 -118.402720 56 37130ft 467kts
28-Dec-17 11:46 40.266467 -118.262111 49 37130ft 464kts
28-Dec-17 11:47 40.344073 -118.128790 49 37102ft 463kts
28-Dec-17 11:48 40.421854 -117.993762 48 37101ft 467kts
28-Dec-17 11:49 40.500398 -117.856713 48 37108ft 471kts
28-Dec-17 11:50 40.578856 -117.719242 48 37108ft 470kts
28-Dec-17 11:51 40.656858 -117.581956 48 37108ft 470kts
28-Dec-17 11:52 40.734876 -117.444023 48 37108ft 470kts
28-Dec-17 11:53 40.811837 -117.307358 49 37107ft 470kts
28-Dec-17 11:54 40.889283 -117.169220 49 37108ft 470kts
28-Dec-17 11:55 40.966542 -117.030796 49 37114ft 466kts
28-Dec-17 11:56 41.043288 -116.892697 49 37107ft 469kts
28-Dec-17 11:57 41.117597 -116.758346 49 37132ft 469kts
28-Dec-17 11:58 41.194189 -116.619282 49 37135ft 468kts
28-Dec-17 11:59 41.271156 -116.478866 49 37031ft 471kts
28-Dec-17 12:00 41.346774 -116.340256 49 36062ft 458kts
28-Dec-17 12:01 41.421130 -116.203513 50 32324ft 462kts
28-Dec-17 12:02 41.494351 -116.068172 50 29527ft 448kts
28-Dec-17 12:03 41.566084 -115.934940 50 27373ft 439kts
28-Dec-17 12:04 41.636339 -115.803958 51 25307ft 447kts
28-Dec-17 12:05 41.712048 -115.661935 51 25114ft 482kts
28-Dec-17 12:06 41.788990 -115.517122 51 25030ft 481kts
28-Dec-17 12:07 41.866321 -115.371047 51 25032ft 481kts
28-Dec-17 12:08 41.942854 -115.225689 52 25027ft 481kts
28-Dec-17 12:09 42.019576 -115.079137 52 25027ft 481kts
28-Dec-17 12:10 42.096381 -114.931747 52 25032ft 481kts
28-Dec-17 12:11 42.171047 -114.787779 52 25039ft 482kts
28-Dec-17 12:12 42.247241 -114.640174 52 25041ft 482kts
28-Dec-17 12:13 42.323428 -114.491850 51 25034ft 482kts
28-Dec-17 12:14 42.399188 -114.343617 52 25032ft 482kts
28-Dec-17 12:15 42.471786 -114.194125 51 25066ft 481kts
28-Dec-17 12:16 42.549247 -114.047045 51 25023ft 482kts
28-Dec-17 12:17 42.621222 -113.893224 48 25047ft 483kts
28-Dec-17 12:18 42.700221 -113.746218 51 25040ft 483kts
28-Dec-17 12:19 42.776028 -113.595140 52 25023ft 483kts
28-Dec-17 12:20 42.851062 -113.443924 52 25027ft 484kts
28-Dec-17 12:21 42.924483 -113.295223 52 25010ft 462kts
28-Dec-17 12:22 43.003246 -113.170607 28 25033ft 424kts
28-Dec-17 12:23 43.100514 -113.086893 27 25058ft 412kts
28-Dec-17 12:24 43.195144 -113.004506 28 25050ft 433kts
28-Dec-17 12:25 43.299969 -112.912649 28 24657ft 471kts
28-Dec-17 12:26 43.409156 -112.816660 28 23904ft 473kts
28-Dec-17 12:27 43.517868 -112.720761 28 23182ft 470kts
28-Dec-17 12:28 43.625248 -112.625558 28 22426ft 464kts
28-Dec-17 12:29 43.730372 -112.531933 29 20349ft 446kts
28-Dec-17 12:30 43.831623 -112.441367 28 17730ft 433kts
28-Dec-17 12:31 43.924475 -112.357983 28 16041ft 353kts
28-Dec-17 12:32 43.996999 -112.292710 29 14116ft 306kts
28-Dec-17 12:33 44.041718 -112.202078 107 10457ft 323kts
28-Dec-17 12:34 43.978247 -112.137675 155 9035ft 252kts
28-Dec-17 12:35 43.924287 -112.102104 155 9004ft 200kts
28-Dec-17 12:36 43.874509 -112.069674 155 9003ft 201kts
28-Dec-17 12:37 43.824372 -112.037112 155 9000ft 201kts
28-Dec-17 12:38 43.774503 -112.004803 155 8999ft 202kts
28-Dec-17 12:39 43.723320 -111.971737 155 7122ft 200kts
28-Dec-17 12:40 43.682799 -111.945495 155 7003ft 149kts
28-Dec-17 12:41 43.645636 -111.931250 213 7008ft 149kts
28-Dec-17 12:42 43.614173 -111.965495 218 6967ft 148kts
28-Dec-17 12:43 43.582605 -111.999337 217 6245ft 147kts
28-Dec-17 12:44 43.551030 -112.033187 217 5487ft 145kts
28-Dec-17 12:45 43.520220 -112.066159 217 4749ft 142kts
28-Dec-17 12:46 43.509463 -112.075791 40 4736ft 7kts
28-Dec-17 12:47 43.511545 -112.073527 38 4736ft 11kts
28-Dec-17 12:48 43.514431 -112.070414 38 4736ft 15kts
28-Dec-17 12:49 43.515823 -112.068216 128 4736ft 1kts
28-Dec-17 12:50 43.515671 -112.068091 154 4736ft 0kts
28-Dec-17 12:51 43.515671 -112.068091 154 4736ft 0kts
28-Dec-17 12:52 43.515671 -112.068091 154 4736ft 0kts
28-Dec-17 12:53 43.515671 -112.068091 154 4736ft 0kts
28-Dec-17 12:54 43.515671 -112.068091 154 4736ft 0kts
28-Dec-17 12:55 43.515671 -112.068091 154 4736ft 0kts
28-Dec-17 12:56 43.515671 -112.068091 154 4736ft 0kts
28-Dec-17 12:57 43.515671 -112.068091 154 4736ft 0kts
28-Dec-17 12:58 43.515671 -112.068091 154 4736ft 0kts
28-Dec-17 12:59 43.515671 -112.068091 154 4736ft 0kts
28-Dec-17 13:00 43.515671 -112.068091 154 4736ft 0kts

Navigation Log

Ident Type
Flight plan parsing failed, navigation log unavailable